sensor_id;sensor_type;location;lat;lon;timestamp;pressure;altitude;pressure_sealevel;temperature;humidity
57232;BME280;43488;46.934;8.276;2023-05-21T00:01:09;96059.31;;;11.98;100.00
57232;BME280;43488;46.934;8.276;2023-05-21T00:03:43;96057.47;;;11.99;100.00
57232;BME280;43488;46.934;8.276;2023-05-21T00:06:12;96058.47;;;11.98;100.00
57232;BME280;43488;46.934;8.276;2023-05-21T00:08:42;96056.88;;;11.96;100.00
57232;BME280;43488;46.934;8.276;2023-05-21T00:11:09;96056.44;;;12.00;100.00
57232;BME280;43488;46.934;8.276;2023-05-21T00:13:36;96053.81;;;12.00;100.00
57232;BME280;43488;46.934;8.276;2023-05-21T00:16:05;96047.94;;;11.98;100.00
57232;BME280;43488;46.934;8.276;2023-05-21T00:18:33;96052.41;;;11.97;100.00
57232;BME280;43488;46.934;8.276;2023-05-21T00:21:00;96048.75;;;11.98;100.00
57232;BME280;43488;46.934;8.276;2023-05-21T00:23:29;96047.13;;;11.97;100.00
57232;BME280;43488;46.934;8.276;2023-05-21T00:25:58;96044.16;;;11.93;100.00
57232;BME280;43488;46.934;8.276;2023-05-21T00:28:26;96048.84;;;11.91;100.00
57232;BME280;43488;46.934;8.276;2023-05-21T00:30:53;96045.28;;;11.86;100.00
57232;BME280;43488;46.934;8.276;2023-05-21T00:33:21;96048.13;;;11.84;100.00
57232;BME280;43488;46.934;8.276;2023-05-21T00:35:48;96043.31;;;11.81;100.00
57232;BME280;43488;46.934;8.276;2023-05-21T00:38:15;96038.84;;;11.82;100.00
57232;BME280;43488;46.934;8.276;2023-05-21T00:40:44;96045.97;;;11.81;100.00
57232;BME280;43488;46.934;8.276;2023-05-21T00:43:11;96043.72;;;11.78;100.00
57232;BME280;43488;46.934;8.276;2023-05-21T00:45:40;96033.97;;;11.79;100.00
57232;BME280;43488;46.934;8.276;2023-05-21T00:48:12;96031.19;;;11.80;100.00
57232;BME280;43488;46.934;8.276;2023-05-21T00:50:40;96027.50;;;11.81;100.00
57232;BME280;43488;46.934;8.276;2023-05-21T00:53:08;96020.63;;;11.80;100.00
57232;BME280;43488;46.934;8.276;2023-05-21T00:55:36;96023.25;;;11.80;100.00
57232;BME280;43488;46.934;8.276;2023-05-21T00:58:06;96022.22;;;11.81;100.00
57232;BME280;43488;46.934;8.276;2023-05-21T01:00:34;96019.41;;;11.76;100.00
57232;BME280;43488;46.934;8.276;2023-05-21T01:03:03;96016.78;;;11.76;100.00
57232;BME280;43488;46.934;8.276;2023-05-21T01:05:30;96016.22;;;11.74;100.00
57232;BME280;43488;46.934;8.276;2023-05-21T01:07:58;96019.31;;;11.71;100.00
57232;BME280;43488;46.934;8.276;2023-05-21T01:10:26;96014.47;;;11.68;100.00
57232;BME280;43488;46.934;8.276;2023-05-21T01:12:57;96015.03;;;11.70;100.00
57232;BME280;43488;46.934;8.276;2023-05-21T01:15:25;96020.53;;;11.68;100.00
57232;BME280;43488;46.934;8.276;2023-05-21T01:17:53;96018.38;;;11.65;100.00
57232;BME280;43488;46.934;8.276;2023-05-21T01:20:24;96015.72;;;11.65;100.00
57232;BME280;43488;46.934;8.276;2023-05-21T01:22:54;96014.94;;;11.65;100.00
57232;BME280;43488;46.934;8.276;2023-05-21T01:25:22;96009.09;;;11.63;100.00
57232;BME280;43488;46.934;8.276;2023-05-21T01:27:50;96011.13;;;11.61;100.00
57232;BME280;43488;46.934;8.276;2023-05-21T01:30:19;96012.38;;;11.58;100.00
57232;BME280;43488;46.934;8.276;2023-05-21T01:33:24;96008.38;;;11.56;100.00
57232;BME280;43488;46.934;8.276;2023-05-21T01:36:22;96014.09;;;11.53;100.00
57232;BME280;43488;46.934;8.276;2023-05-21T01:39:22;96009.25;;;11.50;100.00
57232;BME280;43488;46.934;8.276;2023-05-21T01:41:54;96009.72;;;11.47;100.00
57232;BME280;43488;46.934;8.276;2023-05-21T01:44:23;96010.84;;;11.39;100.00
57232;BME280;43488;46.934;8.276;2023-05-21T01:46:53;96010.59;;;11.40;100.00
57232;BME280;43488;46.934;8.276;2023-05-21T01:49:23;96005.34;;;11.40;100.00
57232;BME280;43488;46.934;8.276;2023-05-21T01:51:51;96001.09;;;11.39;100.00
57232;BME280;43488;46.934;8.276;2023-05-21T01:54:18;96008.53;;;11.43;100.00
57232;BME280;43488;46.934;8.276;2023-05-21T01:56:46;95998.22;;;11.41;100.00
57232;BME280;43488;46.934;8.276;2023-05-21T01:59:13;95996.06;;;11.38;100.00
57232;BME280;43488;46.934;8.276;2023-05-21T02:01:42;95991.00;;;11.36;100.00
57232;BME280;43488;46.934;8.276;2023-05-21T02:04:10;95990.44;;;11.34;100.00
57232;BME280;43488;46.934;8.276;2023-05-21T02:06:38;95998.34;;;11.34;100.00
57232;BME280;43488;46.934;8.276;2023-05-21T02:09:05;96002.22;;;11.32;100.00
57232;BME280;43488;46.934;8.276;2023-05-21T02:11:33;95994.53;;;11.30;100.00
57232;BME280;43488;46.934;8.276;2023-05-21T02:14:02;95992.34;;;11.27;100.00
57232;BME280;43488;46.934;8.276;2023-05-21T02:16:30;95992.59;;;11.26;100.00
57232;BME280;43488;46.934;8.276;2023-05-21T02:18:58;96002.09;;;11.27;100.00
57232;BME280;43488;46.934;8.276;2023-05-21T02:21:27;96000.13;;;11.22;100.00
57232;BME280;43488;46.934;8.276;2023-05-21T02:23:55;96009.50;;;11.18;100.00
57232;BME280;43488;46.934;8.276;2023-05-21T02:26:23;96005.69;;;11.14;100.00
57232;BME280;43488;46.934;8.276;2023-05-21T02:28:50;96010.75;;;11.16;100.00
57232;BME280;43488;46.934;8.276;2023-05-21T02:31:18;95998.00;;;11.13;100.00
57232;BME280;43488;46.934;8.276;2023-05-21T02:33:46;96008.22;;;11.09;100.00
57232;BME280;43488;46.934;8.276;2023-05-21T02:36:13;95998.53;;;11.03;100.00
57232;BME280;43488;46.934;8.276;2023-05-21T02:38:41;96011.38;;;10.99;100.00
57232;BME280;43488;46.934;8.276;2023-05-21T02:41:13;96012.41;;;10.98;100.00
57232;BME280;43488;46.934;8.276;2023-05-21T02:43:40;96006.31;;;10.98;100.00
57232;BME280;43488;46.934;8.276;2023-05-21T02:46:09;96004.69;;;10.97;100.00
57232;BME280;43488;46.934;8.276;2023-05-21T02:48:39;96005.31;;;10.99;100.00
57232;BME280;43488;46.934;8.276;2023-05-21T02:51:06;96011.59;;;10.98;100.00
57232;BME280;43488;46.934;8.276;2023-05-21T02:53:33;96004.78;;;10.90;100.00
57232;BME280;43488;46.934;8.276;2023-05-21T02:56:01;96008.06;;;10.86;100.00
57232;BME280;43488;46.934;8.276;2023-05-21T02:58:28;96005.91;;;10.82;100.00
57232;BME280;43488;46.934;8.276;2023-05-21T03:00:55;96003.25;;;10.82;100.00
57232;BME280;43488;46.934;8.276;2023-05-21T03:03:23;95998.00;;;10.82;100.00
57232;BME280;43488;46.934;8.276;2023-05-21T03:05:50;96000.69;;;10.76;100.00
57232;BME280;43488;46.934;8.276;2023-05-21T03:08:18;96004.59;;;10.73;100.00
57232;BME280;43488;46.934;8.276;2023-05-21T03:10:45;96017.28;;;10.76;100.00
57232;BME280;43488;46.934;8.276;2023-05-21T03:13:13;96011.09;;;10.71;100.00
57232;BME280;43488;46.934;8.276;2023-05-21T03:15:40;96015.97;;;10.67;100.00
57232;BME280;43488;46.934;8.276;2023-05-21T03:18:09;96017.00;;;10.66;100.00
57232;BME280;43488;46.934;8.276;2023-05-21T03:20:37;96013.78;;;10.64;100.00
57232;BME280;43488;46.934;8.276;2023-05-21T03:23:09;96020.50;;;10.60;100.00
57232;BME280;43488;46.934;8.276;2023-05-21T03:25:38;96018.38;;;10.50;100.00
57232;BME280;43488;46.934;8.276;2023-05-21T03:28:06;96012.94;;;10.52;100.00
57232;BME280;43488;46.934;8.276;2023-05-21T03:30:36;96011.91;;;10.53;100.00
57232;BME280;43488;46.934;8.276;2023-05-21T03:33:04;96014.53;;;10.53;100.00
57232;BME280;43488;46.934;8.276;2023-05-21T03:35:32;96018.38;;;10.50;100.00
57232;BME280;43488;46.934;8.276;2023-05-21T03:38:01;96015.38;;;10.47;100.00
57232;BME280;43488;46.934;8.276;2023-05-21T03:40:28;96016.41;;;10.46;100.00
57232;BME280;43488;46.934;8.276;2023-05-21T03:42:55;96016.25;;;10.41;100.00
57232;BME280;43488;46.934;8.276;2023-05-21T03:45:23;96013.50;;;10.36;100.00
57232;BME280;43488;46.934;8.276;2023-05-21T03:47:50;96018.88;;;10.41;100.00
57232;BME280;43488;46.934;8.276;2023-05-21T03:50:17;96018.69;;;10.42;100.00
57232;BME280;43488;46.934;8.276;2023-05-21T03:52:44;96020.28;;;10.43;100.00
57232;BME280;43488;46.934;8.276;2023-05-21T03:55:12;96025.97;;;10.40;100.00
57232;BME280;43488;46.934;8.276;2023-05-21T03:57:39;96024.59;;;10.38;100.00
57232;BME280;43488;46.934;8.276;2023-05-21T04:00:07;96028.47;;;10.35;100.00
57232;BME280;43488;46.934;8.276;2023-05-21T04:02:35;96026.66;;;10.36;100.00
57232;BME280;43488;46.934;8.276;2023-05-21T04:05:02;96013.50;;;10.36;100.00
57232;BME280;43488;46.934;8.276;2023-05-21T04:07:31;96027.44;;;10.36;100.00
57232;BME280;43488;46.934;8.276;2023-05-21T04:09:59;96023.22;;;10.35;100.00
57232;BME280;43488;46.934;8.276;2023-05-21T04:12:28;96026.06;;;10.34;100.00
57232;BME280;43488;46.934;8.276;2023-05-21T04:14:56;96024.66;;;10.31;100.00
57232;BME280;43488;46.934;8.276;2023-05-21T04:17:24;96036.38;;;10.35;100.00
57232;BME280;43488;46.934;8.276;2023-05-21T04:19:53;96042.66;;;10.34;100.00
57232;BME280;43488;46.934;8.276;2023-05-21T04:22:20;96045.06;;;10.36;100.00
57232;BME280;43488;46.934;8.276;2023-05-21T04:24:49;96048.19;;;10.26;100.00
57232;BME280;43488;46.934;8.276;2023-05-21T04:27:17;96049.13;;;10.32;100.00
57232;BME280;43488;46.934;8.276;2023-05-21T04:29:45;96044.47;;;10.34;100.00
57232;BME280;43488;46.934;8.276;2023-05-21T04:32:14;96050.53;;;10.34;100.00
57232;BME280;43488;46.934;8.276;2023-05-21T04:34:43;96053.38;;;10.33;100.00
57232;BME280;43488;46.934;8.276;2023-05-21T04:37:11;96050.38;;;10.29;100.00
57232;BME280;43488;46.934;8.276;2023-05-21T04:39:40;96047.53;;;10.31;100.00
57232;BME280;43488;46.934;8.276;2023-05-21T04:42:11;96054.84;;;10.29;100.00
57232;BME280;43488;46.934;8.276;2023-05-21T04:44:38;96056.38;;;10.36;100.00
57232;BME280;43488;46.934;8.276;2023-05-21T04:47:10;96055.94;;;10.39;100.00
57232;BME280;43488;46.934;8.276;2023-05-21T04:49:40;96054.69;;;10.42;100.00
57232;BME280;43488;46.934;8.276;2023-05-21T04:52:07;96059.91;;;10.48;100.00
57232;BME280;43488;46.934;8.276;2023-05-21T04:54:35;96065.56;;;10.52;100.00
57232;BME280;43488;46.934;8.276;2023-05-21T04:57:05;96060.06;;;10.53;100.00
57232;BME280;43488;46.934;8.276;2023-05-21T04:59:34;96073.81;;;10.56;100.00
57232;BME280;43488;46.934;8.276;2023-05-21T05:02:02;96073.16;;;10.60;100.00
57232;BME280;43488;46.934;8.276;2023-05-21T05:04:30;96068.91;;;10.59;100.00
57232;BME280;43488;46.934;8.276;2023-05-21T05:06:58;96077.41;;;10.61;100.00
57232;BME280;43488;46.934;8.276;2023-05-21T05:09:25;96071.47;;;10.66;100.00
57232;BME280;43488;46.934;8.276;2023-05-21T05:11:52;96082.81;;;10.66;100.00
57232;BME280;43488;46.934;8.276;2023-05-21T05:14:20;96076.31;;;10.69;100.00
57232;BME280;43488;46.934;8.276;2023-05-21T05:16:47;96076.13;;;10.70;100.00
57232;BME280;43488;46.934;8.276;2023-05-21T05:19:15;96077.84;;;10.76;100.00
57232;BME280;43488;46.934;8.276;2023-05-21T05:21:42;96071.38;;;10.79;100.00
57232;BME280;43488;46.934;8.276;2023-05-21T05:24:09;96083.06;;;10.83;100.00
57232;BME280;43488;46.934;8.276;2023-05-21T05:26:36;96066.22;;;10.84;100.00
57232;BME280;43488;46.934;8.276;2023-05-21T05:29:04;96069.38;;;10.93;100.00
57232;BME280;43488;46.934;8.276;2023-05-21T05:31:31;96076.41;;;10.99;100.00
57232;BME280;43488;46.934;8.276;2023-05-21T05:33:59;96068.88;;;11.02;100.00
57232;BME280;43488;46.934;8.276;2023-05-21T05:36:26;96067.75;;;11.10;100.00
57232;BME280;43488;46.934;8.276;2023-05-21T05:38:53;96069.06;;;11.19;100.00
57232;BME280;43488;46.934;8.276;2023-05-21T05:41:20;96063.94;;;11.24;100.00
57232;BME280;43488;46.934;8.276;2023-05-21T05:43:49;96065.91;;;11.29;100.00
57232;BME280;43488;46.934;8.276;2023-05-21T05:46:16;96070.06;;;11.36;100.00
57232;BME280;43488;46.934;8.276;2023-05-21T05:48:43;96063.91;;;11.43;100.00
57232;BME280;43488;46.934;8.276;2023-05-21T05:51:11;96063.00;;;11.49;100.00
57232;BME280;43488;46.934;8.276;2023-05-21T05:53:38;96061.19;;;11.49;100.00
57232;BME280;43488;46.934;8.276;2023-05-21T05:56:06;96068.56;;;11.59;100.00
57232;BME280;43488;46.934;8.276;2023-05-21T05:58:33;96068.47;;;11.65;100.00
57232;BME280;43488;46.934;8.276;2023-05-21T06:01:00;96060.00;;;11.75;100.00
57232;BME280;43488;46.934;8.276;2023-05-21T06:03:28;96058.69;;;11.84;100.00
57232;BME280;43488;46.934;8.276;2023-05-21T06:05:55;96056.75;;;11.91;100.00
57232;BME280;43488;46.934;8.276;2023-05-21T06:08:22;96068.59;;;12.01;100.00
57232;BME280;43488;46.934;8.276;2023-05-21T06:10:50;96062.19;;;12.08;100.00
57232;BME280;43488;46.934;8.276;2023-05-21T06:13:17;96064.50;;;12.16;100.00
57232;BME280;43488;46.934;8.276;2023-05-21T06:15:45;96060.03;;;12.29;100.00
57232;BME280;43488;46.934;8.276;2023-05-21T06:18:12;96059.47;;;12.38;100.00
57232;BME280;43488;46.934;8.276;2023-05-21T06:20:39;96055.22;;;12.49;100.00
57232;BME280;43488;46.934;8.276;2023-05-21T06:23:06;96044.31;;;12.57;100.00
57232;BME280;43488;46.934;8.276;2023-05-21T06:25:35;96051.88;;;12.65;100.00
57232;BME280;43488;46.934;8.276;2023-05-21T06:28:02;96058.28;;;12.69;100.00
57232;BME280;43488;46.934;8.276;2023-05-21T06:30:29;96049.94;;;12.72;100.00
57232;BME280;43488;46.934;8.276;2023-05-21T06:32:59;96061.38;;;12.78;100.00
57232;BME280;43488;46.934;8.276;2023-05-21T06:35:27;96072.06;;;12.83;100.00
57232;BME280;43488;46.934;8.276;2023-05-21T06:37:54;96065.84;;;12.89;100.00
57232;BME280;43488;46.934;8.276;2023-05-21T06:40:21;96068.59;;;12.94;100.00
57232;BME280;43488;46.934;8.276;2023-05-21T06:42:49;96075.84;;;12.99;100.00
57232;BME280;43488;46.934;8.276;2023-05-21T06:45:16;96073.53;;;13.02;100.00
57232;BME280;43488;46.934;8.276;2023-05-21T06:47:43;96074.47;;;13.08;100.00
57232;BME280;43488;46.934;8.276;2023-05-21T06:50:11;96066.63;;;13.13;100.00
57232;BME280;43488;46.934;8.276;2023-05-21T06:52:43;96069.00;;;13.15;100.00
57232;BME280;43488;46.934;8.276;2023-05-21T06:55:11;96070.28;;;13.24;100.00
57232;BME280;43488;46.934;8.276;2023-05-21T06:57:39;96067.53;;;13.30;100.00
57232;BME280;43488;46.934;8.276;2023-05-21T07:00:08;96058.53;;;13.31;100.00
57232;BME280;43488;46.934;8.276;2023-05-21T07:02:36;96062.13;;;13.25;100.00
57232;BME280;43488;46.934;8.276;2023-05-21T07:05:03;96052.38;;;13.26;100.00
57232;BME280;43488;46.934;8.276;2023-05-21T07:07:31;96050.06;;;13.29;100.00
57232;BME280;43488;46.934;8.276;2023-05-21T07:10:00;96054.72;;;13.39;100.00
57232;BME280;43488;46.934;8.276;2023-05-21T07:12:28;96055.41;;;13.46;100.00
57232;BME280;43488;46.934;8.276;2023-05-21T07:14:56;96064.56;;;13.55;100.00
57232;BME280;43488;46.934;8.276;2023-05-21T07:17:24;96072.13;;;13.63;100.00
57232;BME280;43488;46.934;8.276;2023-05-21T07:19:52;96080.28;;;13.62;100.00
57232;BME280;43488;46.934;8.276;2023-05-21T07:22:19;96070.34;;;13.69;100.00
57232;BME280;43488;46.934;8.276;2023-05-21T07:24:47;96075.50;;;13.76;100.00
57232;BME280;43488;46.934;8.276;2023-05-21T07:27:14;96072.97;;;13.81;100.00
57232;BME280;43488;46.934;8.276;2023-05-21T07:29:41;96072.47;;;13.84;100.00
57232;BME280;43488;46.934;8.276;2023-05-21T07:32:09;96065.19;;;13.91;100.00
57232;BME280;43488;46.934;8.276;2023-05-21T07:34:37;96063.19;;;13.98;100.00
57232;BME280;43488;46.934;8.276;2023-05-21T07:37:04;96060.63;;;14.03;100.00
57232;BME280;43488;46.934;8.276;2023-05-21T07:39:32;96064.31;;;14.02;100.00
57232;BME280;43488;46.934;8.276;2023-05-21T07:41:59;96057.59;;;14.11;100.00
57232;BME280;43488;46.934;8.276;2023-05-21T07:44:27;96059.44;;;14.28;100.00
57232;BME280;43488;46.934;8.276;2023-05-21T07:46:55;96060.97;;;14.40;100.00
57232;BME280;43488;46.934;8.276;2023-05-21T07:49:22;96063.22;;;14.48;100.00
57232;BME280;43488;46.934;8.276;2023-05-21T07:51:50;96063.47;;;14.47;100.00
57232;BME280;43488;46.934;8.276;2023-05-21T07:54:17;96064.69;;;14.56;100.00
57232;BME280;43488;46.934;8.276;2023-05-21T07:56:45;96060.03;;;14.63;100.00
57232;BME280;43488;46.934;8.276;2023-05-21T07:59:13;96067.13;;;14.63;100.00
57232;BME280;43488;46.934;8.276;2023-05-21T08:01:42;96058.56;;;14.72;100.00
57232;BME280;43488;46.934;8.276;2023-05-21T08:04:11;96055.47;;;14.80;100.00
57232;BME280;43488;46.934;8.276;2023-05-21T08:06:39;96076.25;;;14.89;100.00
57232;BME280;43488;46.934;8.276;2023-05-21T08:09:06;96069.44;;;14.93;100.00
57232;BME280;43488;46.934;8.276;2023-05-21T08:11:34;96062.53;;;14.92;100.00
57232;BME280;43488;46.934;8.276;2023-05-21T08:14:01;96068.78;;;14.86;100.00
57232;BME280;43488;46.934;8.276;2023-05-21T08:16:29;96080.34;;;14.79;100.00
57232;BME280;43488;46.934;8.276;2023-05-21T08:18:56;96066.50;;;14.72;100.00
57232;BME280;43488;46.934;8.276;2023-05-21T08:21:24;96073.88;;;14.70;100.00
57232;BME280;43488;46.934;8.276;2023-05-21T08:23:52;96074.47;;;14.72;100.00
57232;BME280;43488;46.934;8.276;2023-05-21T08:26:20;96075.31;;;14.78;100.00
57232;BME280;43488;46.934;8.276;2023-05-21T08:28:47;96072.41;;;14.79;100.00
57232;BME280;43488;46.934;8.276;2023-05-21T08:31:17;96072.50;;;14.85;100.00
57232;BME280;43488;46.934;8.276;2023-05-21T08:33:52;96067.25;;;14.90;100.00
57232;BME280;43488;46.934;8.276;2023-05-21T08:36:19;96075.56;;;14.98;100.00
57232;BME280;43488;46.934;8.276;2023-05-21T08:38:47;96065.94;;;15.09;100.00
57232;BME280;43488;46.934;8.276;2023-05-21T08:41:15;96072.88;;;15.15;100.00
57232;BME280;43488;46.934;8.276;2023-05-21T08:43:45;96075.28;;;15.17;100.00
57232;BME280;43488;46.934;8.276;2023-05-21T08:46:15;96077.59;;;15.30;100.00
57232;BME280;43488;46.934;8.276;2023-05-21T08:48:46;96079.84;;;15.43;100.00
57232;BME280;43488;46.934;8.276;2023-05-21T08:51:13;96081.16;;;15.41;100.00
57232;BME280;43488;46.934;8.276;2023-05-21T08:53:41;96074.44;;;15.55;100.00
57232;BME280;43488;46.934;8.276;2023-05-21T08:56:09;96072.75;;;15.71;100.00
57232;BME280;43488;46.934;8.276;2023-05-21T08:58:40;96063.88;;;15.87;100.00
57232;BME280;43488;46.934;8.276;2023-05-21T09:01:11;96066.34;;;15.93;100.00
57232;BME280;43488;46.934;8.276;2023-05-21T09:03:39;96062.19;;;16.03;100.00
57232;BME280;43488;46.934;8.276;2023-05-21T09:06:11;96063.81;;;16.09;100.00
57232;BME280;43488;46.934;8.276;2023-05-21T09:08:52;96060.16;;;16.15;100.00
57232;BME280;43488;46.934;8.276;2023-05-21T09:11:20;96066.88;;;16.23;100.00
57232;BME280;43488;46.934;8.276;2023-05-21T09:13:48;96062.94;;;16.30;100.00
57232;BME280;43488;46.934;8.276;2023-05-21T09:16:16;96069.41;;;16.44;100.00
57232;BME280;43488;46.934;8.276;2023-05-21T09:18:44;96064.75;;;16.57;100.00
57232;BME280;43488;46.934;8.276;2023-05-21T09:21:29;96059.16;;;16.58;100.00
57232;BME280;43488;46.934;8.276;2023-05-21T09:23:59;96059.47;;;16.67;100.00
57232;BME280;43488;46.934;8.276;2023-05-21T09:26:28;96065.69;;;16.77;100.00
57232;BME280;43488;46.934;8.276;2023-05-21T09:28:58;96063.09;;;16.88;100.00
57232;BME280;43488;46.934;8.276;2023-05-21T09:31:29;96061.75;;;16.90;100.00
57232;BME280;43488;46.934;8.276;2023-05-21T09:33:59;96069.25;;;16.93;100.00
57232;BME280;43488;46.934;8.276;2023-05-21T09:36:26;96060.47;;;16.98;100.00
57232;BME280;43488;46.934;8.276;2023-05-21T09:38:56;96065.03;;;17.02;100.00
57232;BME280;43488;46.934;8.276;2023-05-21T09:41:33;96057.88;;;17.08;100.00
57232;BME280;43488;46.934;8.276;2023-05-21T09:44:06;96059.53;;;17.19;100.00
57232;BME280;43488;46.934;8.276;2023-05-21T09:46:44;96060.84;;;17.17;98.18
57232;BME280;43488;46.934;8.276;2023-05-21T09:49:25;96059.78;;;17.18;96.21
57232;BME280;43488;46.934;8.276;2023-05-21T09:51:57;96062.72;;;17.26;96.83
57232;BME280;43488;46.934;8.276;2023-05-21T09:54:32;96068.09;;;17.31;96.43
57232;BME280;43488;46.934;8.276;2023-05-21T09:57:00;96070.00;;;17.41;98.88
57232;BME280;43488;46.934;8.276;2023-05-21T09:59:49;96074.00;;;17.49;96.43
57232;BME280;43488;46.934;8.276;2023-05-21T10:02:21;96064.72;;;17.61;97.98
57232;BME280;43488;46.934;8.276;2023-05-21T10:04:50;96064.19;;;17.64;98.50
57232;BME280;43488;46.934;8.276;2023-05-21T10:07:20;96062.13;;;17.77;97.12
57232;BME280;43488;46.934;8.276;2023-05-21T10:09:56;96064.81;;;17.87;96.79
57232;BME280;43488;46.934;8.276;2023-05-21T10:12:26;96053.63;;;17.90;94.24
57232;BME280;43488;46.934;8.276;2023-05-21T10:15:02;96052.84;;;17.95;91.07
57232;BME280;43488;46.934;8.276;2023-05-21T10:17:30;96056.84;;;18.02;94.65
57232;BME280;43488;46.934;8.276;2023-05-21T10:19:59;96046.72;;;18.19;94.75
57232;BME280;43488;46.934;8.276;2023-05-21T10:22:30;96050.22;;;18.30;93.02
57232;BME280;43488;46.934;8.276;2023-05-21T10:24:59;96051.00;;;18.36;91.50
57232;BME280;43488;46.934;8.276;2023-05-21T10:27:29;96045.13;;;18.44;94.38
57232;BME280;43488;46.934;8.276;2023-05-21T10:29:58;96041.13;;;18.57;96.22
57232;BME280;43488;46.934;8.276;2023-05-21T10:32:26;96041.41;;;18.65;93.84
57232;BME280;43488;46.934;8.276;2023-05-21T10:34:55;96044.56;;;18.83;92.15
57232;BME280;43488;46.934;8.276;2023-05-21T10:37:24;96046.19;;;18.84;91.27
57232;BME280;43488;46.934;8.276;2023-05-21T10:39:55;96041.06;;;18.97;93.26
57232;BME280;43488;46.934;8.276;2023-05-21T10:54:10;96037.97;;;19.35;89.27
57232;BME280;43488;46.934;8.276;2023-05-21T11:00:17;96037.59;;;19.67;89.61
57232;BME280;43488;46.934;8.276;2023-05-21T11:02:48;96031.41;;;19.71;88.34
57232;BME280;43488;46.934;8.276;2023-05-21T11:05:49;96026.59;;;19.73;86.47
57232;BME280;43488;46.934;8.276;2023-05-21T11:08:27;96025.00;;;19.72;87.53
57232;BME280;43488;46.934;8.276;2023-05-21T11:11:02;96027.06;;;19.85;87.04
57232;BME280;43488;46.934;8.276;2023-05-21T11:13:47;96027.28;;;19.94;88.67
57232;BME280;43488;46.934;8.276;2023-05-21T11:16:17;96018.09;;;20.05;86.60
57232;BME280;43488;46.934;8.276;2023-05-21T11:18:55;96020.63;;;20.21;87.05
57232;BME280;43488;46.934;8.276;2023-05-21T11:21:27;96024.56;;;20.33;84.75
57232;BME280;43488;46.934;8.276;2023-05-21T11:24:03;96020.44;;;20.46;86.08
57232;BME280;43488;46.934;8.276;2023-05-21T11:29:16;96012.41;;;20.75;85.97
57232;BME280;43488;46.934;8.276;2023-05-21T11:31:57;96009.53;;;20.95;85.88
57232;BME280;43488;46.934;8.276;2023-05-21T11:34:42;95996.59;;;21.02;84.43
57232;BME280;43488;46.934;8.276;2023-05-21T11:39:51;95998.88;;;21.14;76.72
57232;BME280;43488;46.934;8.276;2023-05-21T11:42:37;96002.06;;;21.16;81.51
57232;BME280;43488;46.934;8.276;2023-05-21T11:45:05;95992.88;;;21.22;82.46
57232;BME280;43488;46.934;8.276;2023-05-21T11:47:33;95993.09;;;21.26;82.01
57232;BME280;43488;46.934;8.276;2023-05-21T11:50:02;95992.16;;;21.17;76.84
57232;BME280;43488;46.934;8.276;2023-05-21T11:52:31;95992.31;;;21.25;80.94
57232;BME280;43488;46.934;8.276;2023-05-21T11:54:59;95989.38;;;21.27;81.09
57232;BME280;43488;46.934;8.276;2023-05-21T11:57:27;95996.75;;;21.35;82.48
57232;BME280;43488;46.934;8.276;2023-05-21T12:00:01;95989.53;;;21.36;80.67
57232;BME280;43488;46.934;8.276;2023-05-21T12:02:31;95990.16;;;21.27;81.38
57232;BME280;43488;46.934;8.276;2023-05-21T12:04:59;95987.44;;;21.33;79.74
57232;BME280;43488;46.934;8.276;2023-05-21T12:07:27;95990.41;;;21.31;78.36
57232;BME280;43488;46.934;8.276;2023-05-21T12:09:59;95996.25;;;21.33;79.46
57232;BME280;43488;46.934;8.276;2023-05-21T12:12:30;95987.44;;;21.33;79.79
57232;BME280;43488;46.934;8.276;2023-05-21T12:15:01;95992.06;;;21.46;81.11
57232;BME280;43488;46.934;8.276;2023-05-21T12:17:30;95989.25;;;21.56;79.48
57232;BME280;43488;46.934;8.276;2023-05-21T12:19:58;95988.69;;;21.59;78.54
57232;BME280;43488;46.934;8.276;2023-05-21T12:22:26;95985.63;;;21.66;77.20
57232;BME280;43488;46.934;8.276;2023-05-21T12:24:55;95985.19;;;21.77;74.94
57232;BME280;43488;46.934;8.276;2023-05-21T12:27:27;95984.81;;;21.84;73.77
57232;BME280;43488;46.934;8.276;2023-05-21T12:29:56;95980.53;;;21.83;72.91
57232;BME280;43488;46.934;8.276;2023-05-21T12:32:26;95974.47;;;21.77;75.05
57232;BME280;43488;46.934;8.276;2023-05-21T12:34:55;95979.59;;;21.74;74.72
57232;BME280;43488;46.934;8.276;2023-05-21T12:37:26;95975.41;;;21.86;75.24
57232;BME280;43488;46.934;8.276;2023-05-21T12:39:55;95971.66;;;21.88;76.23
57232;BME280;43488;46.934;8.276;2023-05-21T12:42:26;95977.31;;;21.86;73.26
57232;BME280;43488;46.934;8.276;2023-05-21T12:44:56;95973.22;;;21.89;72.96
57232;BME280;43488;46.934;8.276;2023-05-21T12:47:26;95972.31;;;21.79;71.91
57232;BME280;43488;46.934;8.276;2023-05-21T12:49:56;95978.03;;;21.73;73.55
57232;BME280;43488;46.934;8.276;2023-05-21T12:52:25;95971.66;;;21.69;73.80
57232;BME280;43488;46.934;8.276;2023-05-21T12:54:57;95974.50;;;21.58;72.43
57232;BME280;43488;46.934;8.276;2023-05-21T12:57:33;95964.44;;;21.50;73.47
57232;BME280;43488;46.934;8.276;2023-05-21T13:00:05;95963.94;;;21.67;74.13
57232;BME280;43488;46.934;8.276;2023-05-21T13:02:38;95957.81;;;21.80;72.82
57232;BME280;43488;46.934;8.276;2023-05-21T13:05:15;95963.06;;;22.04;72.33
57232;BME280;43488;46.934;8.276;2023-05-21T13:07:45;95958.66;;;22.13;69.05
57232;BME280;43488;46.934;8.276;2023-05-21T13:10:13;95958.31;;;22.34;71.54
57232;BME280;43488;46.934;8.276;2023-05-21T13:12:42;95949.00;;;22.45;69.14
57232;BME280;43488;46.934;8.276;2023-05-21T13:15:10;95946.22;;;22.50;68.11
57232;BME280;43488;46.934;8.276;2023-05-21T13:17:37;95953.59;;;22.72;68.70
57232;BME280;43488;46.934;8.276;2023-05-21T13:20:12;95945.03;;;22.84;69.61
57232;BME280;43488;46.934;8.276;2023-05-21T13:22:48;95946.84;;;22.88;68.09
57232;BME280;43488;46.934;8.276;2023-05-21T13:25:18;95951.31;;;22.93;67.64